sensor_id;sensor_type;location;lat;lon;timestamp;pressure;altitude;pressure_sealevel;temperature;humidity
44663;BME280;30381;52.754;18.258;2022-10-30T06:39:42;101123.70;;;11.87;100.00
44663;BME280;30381;52.754;18.258;2022-10-30T06:42:09;101135.59;;;11.95;100.00
44663;BME280;30381;52.754;18.258;2022-10-30T06:44:35;101144.55;;;12.07;100.00
44663;BME280;30381;52.754;18.258;2022-10-30T06:47:04;101139.46;;;12.20;100.00
44663;BME280;30381;52.754;18.258;2022-10-30T06:49:31;101139.70;;;12.30;100.00
44663;BME280;30381;52.754;18.258;2022-10-30T06:52:15;101133.22;;;12.42;100.00
44663;BME280;30381;52.754;18.258;2022-10-30T06:54:46;101101.63;;;12.48;100.00
44663;BME280;30381;52.754;18.258;2022-10-30T06:57:30;101114.66;;;12.48;100.00
44663;BME280;30381;52.754;18.258;2022-10-30T06:59:57;101119.59;;;12.51;100.00
44663;BME280;30381;52.754;18.258;2022-10-30T07:02:25;101118.42;;;12.59;100.00
44663;BME280;30381;52.754;18.258;2022-10-30T07:05:14;101131.58;;;12.65;100.00
44663;BME280;30381;52.754;18.258;2022-10-30T07:10:43;101121.63;;;12.82;100.00
44663;BME280;30381;52.754;18.258;2022-10-30T07:13:10;101129.77;;;12.93;100.00
44663;BME280;30381;52.754;18.258;2022-10-30T07:15:37;101137.72;;;12.98;100.00
44663;BME280;30381;52.754;18.258;2022-10-30T07:18:07;101139.41;;;13.01;100.00
44663;BME280;30381;52.754;18.258;2022-10-30T07:20:35;101140.05;;;13.06;100.00
44663;BME280;30381;52.754;18.258;2022-10-30T07:23:20;101141.78;;;13.09;100.00
44663;BME280;30381;52.754;18.258;2022-10-30T07:26:05;101149.77;;;13.13;100.00
44663;BME280;30381;52.754;18.258;2022-10-30T07:28:33;101154.34;;;13.24;100.00
44663;BME280;30381;52.754;18.258;2022-10-30T07:31:18;101154.36;;;13.39;100.00
44663;BME280;30381;52.754;18.258;2022-10-30T07:33:44;101152.51;;;13.56;100.00
44663;BME280;30381;52.754;18.258;2022-10-30T07:36:11;101154.95;;;13.69;100.00
44663;BME280;30381;52.754;18.258;2022-10-30T07:38:58;101141.78;;;13.77;100.00
44663;BME280;30381;52.754;18.258;2022-10-30T07:41:24;101145.19;;;13.85;100.00
44663;BME280;30381;52.754;18.258;2022-10-30T07:43:50;101143.36;;;13.90;100.00
44663;BME280;30381;52.754;18.258;2022-10-30T07:46:35;101141.35;;;14.00;100.00
44663;BME280;30381;52.754;18.258;2022-10-30T07:49:19;101144.59;;;14.13;100.00
44663;BME280;30381;52.754;18.258;2022-10-30T07:51:47;101148.31;;;14.24;100.00
44663;BME280;30381;52.754;18.258;2022-10-30T07:54:14;101147.36;;;14.33;100.00
44663;BME280;30381;52.754;18.258;2022-10-30T07:57:00;101161.69;;;14.42;100.00
44663;BME280;30381;52.754;18.258;2022-10-30T07:59:28;101158.00;;;14.51;100.00
44663;BME280;30381;52.754;18.258;2022-10-30T08:01:59;101166.03;;;14.60;100.00
44663;BME280;30381;52.754;18.258;2022-10-30T08:04:25;101159.44;;;14.73;100.00
44663;BME280;30381;52.754;18.258;2022-10-30T08:06:55;101157.76;;;14.88;100.00
44663;BME280;30381;52.754;18.258;2022-10-30T08:09:21;101158.67;;;14.96;100.00
44663;BME280;30381;52.754;18.258;2022-10-30T08:11:47;101167.76;;;15.04;100.00
44663;BME280;30381;52.754;18.258;2022-10-30T08:14:32;101166.88;;;15.18;100.00
44663;BME280;30381;52.754;18.258;2022-10-30T08:17:00;101167.06;;;15.33;100.00
44663;BME280;30381;52.754;18.258;2022-10-30T08:19:48;101162.52;;;15.41;100.00
44663;BME280;30381;52.754;18.258;2022-10-30T08:22:14;101162.89;;;15.50;100.00
44663;BME280;30381;52.754;18.258;2022-10-30T08:24:59;101167.64;;;15.57;100.00
44663;BME280;30381;52.754;18.258;2022-10-30T08:27:27;101162.98;;;15.55;100.00
44663;BME280;30381;52.754;18.258;2022-10-30T08:29:54;101169.24;;;15.53;100.00
44663;BME280;30381;52.754;18.258;2022-10-30T08:32:20;101174.11;;;15.51;100.00
44663;BME280;30381;52.754;18.258;2022-10-30T08:34:47;101173.73;;;15.45;100.00
44663;BME280;30381;52.754;18.258;2022-10-30T08:37:15;101170.41;;;15.40;100.00
44663;BME280;30381;52.754;18.258;2022-10-30T08:39:51;101177.49;;;15.39;100.00
44663;BME280;30381;52.754;18.258;2022-10-30T08:42:21;101177.49;;;15.39;100.00
44663;BME280;30381;52.754;18.258;2022-10-30T08:45:19;101176.68;;;15.41;100.00
44663;BME280;30381;52.754;18.258;2022-10-30T08:51:54;101171.69;;;15.33;100.00
44663;BME280;30381;52.754;18.258;2022-10-30T08:57:37;101178.14;;;15.27;100.00
44663;BME280;30381;52.754;18.258;2022-10-30T09:00:26;101177.61;;;15.27;100.00
44663;BME280;30381;52.754;18.258;2022-10-30T09:06:26;101176.37;;;15.37;100.00
44663;BME280;30381;52.754;18.258;2022-10-30T09:09:22;101172.89;;;15.42;100.00
44663;BME280;30381;52.754;18.258;2022-10-30T09:12:10;101168.56;;;15.46;100.00
44663;BME280;30381;52.754;18.258;2022-10-30T09:21:53;101173.05;;;15.55;100.00
44663;BME280;30381;52.754;18.258;2022-10-30T09:30:34;101167.58;;;15.76;100.00
44663;BME280;30381;52.754;18.258;2022-10-30T09:33:43;101159.80;;;15.90;100.00
44663;BME280;30381;52.754;18.258;2022-10-30T09:36:41;101166.43;;;15.99;100.00
44663;BME280;30381;52.754;18.258;2022-10-30T09:39:27;101167.83;;;16.02;100.00
44663;BME280;30381;52.754;18.258;2022-10-30T10:41:30;101137.00;;;17.17;100.00
44663;BME280;30381;52.754;18.258;2022-10-30T10:47:13;101134.80;;;17.19;100.00
44663;BME280;30381;52.754;18.258;2022-10-30T12:43:53;101069.27;;;16.64;100.00
44663;BME280;30381;52.754;18.258;2022-10-30T14:33:04;101034.39;;;16.79;100.00
44663;BME280;30381;52.754;18.258;2022-10-30T14:36:17;101036.53;;;16.69;100.00
44663;BME280;30381;52.754;18.258;2022-10-30T15:48:55;101027.37;;;14.32;100.00
44663;BME280;30381;52.754;18.258;2022-10-30T16:01:42;101023.06;;;13.80;100.00
44663;BME280;30381;52.754;18.258;2022-10-30T16:32:21;101036.16;;;12.96;100.00
44663;BME280;30381;52.754;18.258;2022-10-30T16:42:00;101032.17;;;12.73;100.00
44663;BME280;30381;52.754;18.258;2022-10-30T16:49:17;101031.33;;;12.58;100.00
44663;BME280;30381;52.754;18.258;2022-10-30T17:00:28;101020.22;;;12.34;100.00
44663;BME280;30381;52.754;18.258;2022-10-30T17:03:17;101021.45;;;12.17;100.00
44663;BME280;30381;52.754;18.258;2022-10-30T17:06:27;101018.63;;;12.12;100.00
44663;BME280;30381;52.754;18.258;2022-10-30T17:08:58;101020.47;;;12.09;100.00
44663;BME280;30381;52.754;18.258;2022-10-30T17:11:39;101029.31;;;12.04;100.00
44663;BME280;30381;52.754;18.258;2022-10-30T17:14:17;101024.87;;;12.01;100.00
44663;BME280;30381;52.754;18.258;2022-10-30T17:17:11;101021.81;;;11.97;100.00
44663;BME280;30381;52.754;18.258;2022-10-30T17:20:27;101029.30;;;11.93;100.00
44663;BME280;30381;52.754;18.258;2022-10-30T17:22:23;101024.58;;;11.88;100.00
44663;BME280;30381;52.754;18.258;2022-10-30T17:24:52;101028.57;;;11.86;100.00
44663;BME280;30381;52.754;18.258;2022-10-30T17:27:47;101033.94;;;11.83;100.00
44663;BME280;30381;52.754;18.258;2022-10-30T17:33:35;101029.98;;;11.77;100.00
44663;BME280;30381;52.754;18.258;2022-10-30T17:36:24;101028.27;;;11.73;100.00
44663;BME280;30381;52.754;18.258;2022-10-30T17:38:54;101033.58;;;11.71;100.00
44663;BME280;30381;52.754;18.258;2022-10-30T17:41:21;101033.75;;;11.66;100.00
44663;BME280;30381;52.754;18.258;2022-10-30T17:44:04;101035.77;;;11.59;100.00
44663;BME280;30381;52.754;18.258;2022-10-30T17:46:38;101038.26;;;11.52;100.00
44663;BME280;30381;52.754;18.258;2022-10-30T17:51:57;101034.98;;;11.41;100.00
44663;BME280;30381;52.754;18.258;2022-10-30T17:54:24;101031.92;;;11.37;100.00
44663;BME280;30381;52.754;18.258;2022-10-30T17:56:56;101028.91;;;11.36;100.00
44663;BME280;30381;52.754;18.258;2022-10-30T17:59:27;101024.02;;;11.36;100.00
44663;BME280;30381;52.754;18.258;2022-10-30T18:01:57;101029.16;;;11.35;100.00
44663;BME280;30381;52.754;18.258;2022-10-30T18:05:00;101025.62;;;11.34;100.00
44663;BME280;30381;52.754;18.258;2022-10-30T18:07:24;101024.49;;;11.33;100.00
44663;BME280;30381;52.754;18.258;2022-10-30T18:09:50;101031.73;;;11.30;100.00
44663;BME280;30381;52.754;18.258;2022-10-30T18:12:22;101032.12;;;11.24;100.00
44663;BME280;30381;52.754;18.258;2022-10-30T18:14:50;101027.92;;;11.19;100.00
44663;BME280;30381;52.754;18.258;2022-10-30T18:17:40;101026.44;;;11.14;100.00
44663;BME280;30381;52.754;18.258;2022-10-30T18:20:26;101027.34;;;11.08;100.00
44663;BME280;30381;52.754;18.258;2022-10-30T18:23:03;101030.44;;;11.02;100.00
44663;BME280;30381;52.754;18.258;2022-10-30T18:25:41;101026.23;;;10.97;100.00
44663;BME280;30381;52.754;18.258;2022-10-30T18:28:42;101025.88;;;10.94;100.00
44663;BME280;30381;52.754;18.258;2022-10-30T18:31:12;101028.44;;;10.89;100.00
44663;BME280;30381;52.754;18.258;2022-10-30T18:46:10;101038.30;;;10.74;100.00
44663;BME280;30381;52.754;18.258;2022-10-30T18:48:55;101035.66;;;10.76;100.00
44663;BME280;30381;52.754;18.258;2022-10-30T18:51:28;101036.73;;;10.75;100.00
44663;BME280;30381;52.754;18.258;2022-10-30T18:53:59;101034.03;;;10.75;100.00
44663;BME280;30381;52.754;18.258;2022-10-30T18:56:31;101038.66;;;10.77;100.00
44663;BME280;30381;52.754;18.258;2022-10-30T18:59:11;101039.70;;;10.76;100.00
44663;BME280;30381;52.754;18.258;2022-10-30T19:01:52;101042.94;;;10.76;100.00
44663;BME280;30381;52.754;18.258;2022-10-30T19:04:27;101041.83;;;10.74;100.00
44663;BME280;30381;52.754;18.258;2022-10-30T19:06:54;101036.42;;;10.74;100.00
44663;BME280;30381;52.754;18.258;2022-10-30T19:09:20;101047.24;;;10.74;100.00
44663;BME280;30381;52.754;18.258;2022-10-30T19:12:09;101040.17;;;10.73;100.00
44663;BME280;30381;52.754;18.258;2022-10-30T19:14:48;101037.47;;;10.73;100.00
44663;BME280;30381;52.754;18.258;2022-10-30T19:17:22;101038.00;;;10.73;100.00
44663;BME280;30381;52.754;18.258;2022-10-30T19:20:10;101035.51;;;10.71;100.00
44663;BME280;30381;52.754;18.258;2022-10-30T19:23:29;101046.58;;;10.70;100.00
44663;BME280;30381;52.754;18.258;2022-10-30T19:28:59;101043.20;;;10.65;100.00
44663;BME280;30381;52.754;18.258;2022-10-30T19:34:26;101036.50;;;10.59;100.00
44663;BME280;30381;52.754;18.258;2022-10-30T19:36:47;101028.02;;;10.55;100.00
44663;BME280;30381;52.754;18.258;2022-10-30T19:42:43;101032.20;;;10.51;100.00
44663;BME280;30381;52.754;18.258;2022-10-30T19:48:21;101032.36;;;10.47;100.00
44663;BME280;30381;52.754;18.258;2022-10-30T19:51:03;101028.77;;;10.44;100.00
44663;BME280;30381;52.754;18.258;2022-10-30T19:57:23;101024.62;;;10.42;100.00
44663;BME280;30381;52.754;18.258;2022-10-30T20:00:31;101024.04;;;10.40;100.00
44663;BME280;30381;52.754;18.258;2022-10-30T20:03:13;101022.59;;;10.37;100.00
44663;BME280;30381;52.754;18.258;2022-10-30T20:05:44;101019.73;;;10.32;100.00
44663;BME280;30381;52.754;18.258;2022-10-30T20:08:14;101022.96;;;10.31;100.00
44663;BME280;30381;52.754;18.258;2022-10-30T20:10:48;101022.16;;;10.31;100.00
44663;BME280;30381;52.754;18.258;2022-10-30T20:13:19;101027.57;;;10.31;100.00
44663;BME280;30381;52.754;18.258;2022-10-30T20:16:06;101024.41;;;10.25;100.00
44663;BME280;30381;52.754;18.258;2022-10-30T20:18:43;101020.72;;;10.19;100.00
44663;BME280;30381;52.754;18.258;2022-10-30T20:21:19;101024.89;;;10.15;100.00
44663;BME280;30381;52.754;18.258;2022-10-30T20:40:35;101015.48;;;10.09;100.00
44663;BME280;30381;52.754;18.258;2022-10-30T20:43:17;101018.19;;;10.09;100.00
44663;BME280;30381;52.754;18.258;2022-10-30T20:45:50;101016.31;;;10.09;100.00
44663;BME280;30381;52.754;18.258;2022-10-30T20:48:21;101019.02;;;10.09;100.00
44663;BME280;30381;52.754;18.258;2022-10-30T20:50:55;101020.67;;;10.10;100.00
44663;BME280;30381;52.754;18.258;2022-10-30T20:53:28;101022.55;;;10.10;100.00
44663;BME280;30381;52.754;18.258;2022-10-30T20:56:13;101018.19;;;10.09;100.00
44663;BME280;30381;52.754;18.258;2022-10-30T20:59:06;101016.84;;;10.09;100.00
44663;BME280;30381;52.754;18.258;2022-10-30T21:01:31;101020.89;;;10.09;100.00
44663;BME280;30381;52.754;18.258;2022-10-30T21:03:58;101015.48;;;10.09;100.00
44663;BME280;30381;52.754;18.258;2022-10-30T21:06:25;101015.48;;;10.09;100.00
44663;BME280;30381;52.754;18.258;2022-10-30T21:08:54;101010.39;;;10.10;100.00
44663;BME280;30381;52.754;18.258;2022-10-30T21:11:21;101010.14;;;10.11;100.00
44663;BME280;30381;52.754;18.258;2022-10-30T21:13:50;101012.11;;;10.13;100.00
44663;BME280;30381;52.754;18.258;2022-10-30T21:16:18;101007.75;;;10.12;100.00
44663;BME280;30381;52.754;18.258;2022-10-30T21:19:03;101011.59;;;10.14;100.00
44663;BME280;30381;52.754;18.258;2022-10-30T21:21:29;101010.55;;;10.15;100.00
44663;BME280;30381;52.754;18.258;2022-10-30T21:23:56;101014.60;;;10.15;100.00
44663;BME280;30381;52.754;18.258;2022-10-30T21:26:22;101019.00;;;10.16;100.00
44663;BME280;30381;52.754;18.258;2022-10-30T22:03:17;101018.40;;;10.07;100.00
44663;BME280;30381;52.754;18.258;2022-10-30T22:05:44;101016.67;;;10.04;100.00
44663;BME280;30381;52.754;18.258;2022-10-30T22:08:12;101012.01;;;10.02;100.00
44663;BME280;30381;52.754;18.258;2022-10-30T22:10:41;101017.66;;;10.00;100.00
44663;BME280;30381;52.754;18.258;2022-10-30T22:13:07;101013.20;;;9.97;100.00
44663;BME280;30381;52.754;18.258;2022-10-30T22:18:47;101006.59;;;9.92;100.00
44663;BME280;30381;52.754;18.258;2022-10-30T22:21:14;101006.00;;;9.90;100.00
44663;BME280;30381;52.754;18.258;2022-10-30T22:23:42;101004.34;;;9.89;100.00
44663;BME280;30381;52.754;18.258;2022-10-30T22:26:25;101009.13;;;9.87;100.00
44663;BME280;30381;52.754;18.258;2022-10-30T22:28:53;101015.30;;;9.85;100.00
44663;BME280;30381;52.754;18.258;2022-10-30T22:31:29;101008.76;;;9.84;100.00
44663;BME280;30381;52.754;18.258;2022-10-30T22:34:00;101013.02;;;9.82;100.00
44663;BME280;30381;52.754;18.258;2022-10-30T22:36:29;101005.44;;;9.82;100.00
44663;BME280;30381;52.754;18.258;2022-10-30T22:38:58;101004.33;;;9.80;100.00
44663;BME280;30381;52.754;18.258;2022-10-30T22:41:28;101002.36;;;9.78;100.00
44663;BME280;30381;52.754;18.258;2022-10-30T22:46:44;101002.72;;;9.73;100.00
44663;BME280;30381;52.754;18.258;2022-10-30T22:49:29;101010.52;;;9.72;100.00
44663;BME280;30381;52.754;18.258;2022-10-30T22:51:55;101006.70;;;9.70;100.00
44663;BME280;30381;52.754;18.258;2022-10-30T22:54:22;101003.17;;;9.70;100.00
44663;BME280;30381;52.754;18.258;2022-10-30T22:56:49;101007.74;;;9.69;100.00
44663;BME280;30381;52.754;18.258;2022-10-30T22:59:16;101009.09;;;9.69;100.00
44663;BME280;30381;52.754;18.258;2022-10-30T23:01:42;101015.02;;;9.69;100.00
44663;BME280;30381;52.754;18.258;2022-10-30T23:04:10;101017.71;;;9.69;100.00
44663;BME280;30381;52.754;18.258;2022-10-30T23:06:37;101017.19;;;9.69;100.00
44663;BME280;30381;52.754;18.258;2022-10-30T23:09:22;101024.67;;;9.67;100.00
44663;BME280;30381;52.754;18.258;2022-10-30T23:11:49;101020.94;;;9.68;100.00
44663;BME280;30381;52.754;18.258;2022-10-30T23:14:15;101022.49;;;9.67;100.00
44663;BME280;30381;52.754;18.258;2022-10-30T23:16:41;101020.34;;;9.66;100.00
44663;BME280;30381;52.754;18.258;2022-10-30T23:19:11;101025.44;;;9.65;100.00
44663;BME280;30381;52.754;18.258;2022-10-30T23:21:37;101024.09;;;9.65;100.00
44663;BME280;30381;52.754;18.258;2022-10-30T23:24:04;101032.70;;;9.65;100.00
44663;BME280;30381;52.754;18.258;2022-10-30T23:26:33;101028.03;;;9.63;100.00
44663;BME280;30381;52.754;18.258;2022-10-30T23:29:01;101032.09;;;9.63;100.00
44663;BME280;30381;52.754;18.258;2022-10-30T23:34:07;101038.01;;;9.62;100.00
44663;BME280;30381;52.754;18.258;2022-10-30T23:36:35;101037.28;;;9.64;100.00
44663;BME280;30381;52.754;18.258;2022-10-30T23:39:05;101042.67;;;9.64;100.00
44663;BME280;30381;52.754;18.258;2022-10-30T23:41:33;101029.17;;;9.64;100.00
44663;BME280;30381;52.754;18.258;2022-10-30T23:44:05;101036.23;;;9.65;100.00
44663;BME280;30381;52.754;18.258;2022-10-30T23:46:33;101037.06;;;9.66;100.00
44663;BME280;30381;52.754;18.258;2022-10-30T23:49:00;101030.73;;;9.63;100.00
44663;BME280;30381;52.754;18.258;2022-10-30T23:51:27;101032.61;;;9.62;100.00
44663;BME280;30381;52.754;18.258;2022-10-30T23:53:54;101035.62;;;9.63;100.00
44663;BME280;30381;52.754;18.258;2022-10-30T23:56:20;101031.19;;;9.60;100.00
44663;BME280;30381;52.754;18.258;2022-10-30T23:58:48;101030.66;;;9.60;100.00
